Time;durP1;ratioP1;P1;durP2;ratioP2;P2;SDS_P1;SDS_P2;PMS_P1;PMS_P2;Temp;Humidity;BMP_temperature;BMP_pressure;BME280_temperature;BME280_humidity;BME280_pressure;Samples;Min_cycle;Max_cycle;Signal;HPM_P1;HPM_P2
2023/05/06 00:02:25;;;;;;;7.53;2.90;;;16.10;1.00;;;;;;4962931;28;20924;-56
2023/05/06 00:04:50;;;;;;;7.80;2.90;;;16.10;1.00;;;;;;4967190;28;20410;-56
2023/05/06 00:07:16;;;;;;;6.90;2.70;;;16.00;1.00;;;;;;4969820;28;20428;-56
2023/05/06 00:09:41;;;;;;;8.00;2.63;;;15.90;1.00;;;;;;4970584;28;20463;-56
2023/05/06 00:12:07;;;;;;;6.18;2.28;;;15.90;1.00;;;;;;4970165;28;20490;-56
2023/05/06 00:14:33;;;;;;;5.90;2.40;;;15.90;1.00;;;;;;4970643;28;20431;-56
2023/05/06 00:16:58;;;;;;;7.20;2.90;;;15.80;1.00;;;;;;4969641;28;20483;-56
2023/05/06 00:19:24;;;;;;;6.70;2.80;;;15.70;1.00;;;;;;4970198;28;20491;-56
2023/05/06 00:21:51;;;;;;;6.18;2.50;;;15.60;1.00;;;;;;4970495;28;20763;-56
2023/05/06 00:24:16;;;;;;;7.00;3.00;;;15.60;1.00;;;;;;4970267;28;20412;-56
2023/05/06 00:26:42;;;;;;;6.90;2.90;;;15.50;1.00;;;;;;4969634;28;20439;-56
2023/05/06 00:29:07;;;;;;;6.40;2.90;;;15.50;1.00;;;;;;4969524;28;20416;-56
2023/05/06 00:31:33;;;;;;;7.83;3.30;;;15.40;1.00;;;;;;4970137;28;20466;-56
2023/05/06 00:33:58;;;;;;;6.63;3.13;;;15.40;1.00;;;;;;4969476;28;20456;-56
2023/05/06 00:36:24;;;;;;;7.47;3.13;;;15.40;1.00;;;;;;4969961;28;20757;-56
2023/05/06 00:38:50;;;;;;;10.20;3.20;;;15.30;1.00;;;;;;4970457;28;20400;-56
2023/05/06 00:41:15;;;;;;;7.90;3.03;;;15.20;1.00;;;;;;4967684;28;20408;-56
2023/05/06 00:43:41;;;;;;;8.33;3.60;;;15.30;1.00;;;;;;4970372;28;20408;-56
2023/05/06 00:46:09;;;;;;;7.32;3.03;;;15.30;1.00;;;;;;4969476;28;20396;-56
2023/05/06 00:48:35;;;;;;;7.22;3.60;;;15.20;1.00;;;;;;4970486;28;20396;-56
2023/05/06 00:51:01;;;;;;;7.50;3.37;;;15.10;1.00;;;;;;4969255;28;20396;-56
2023/05/06 00:53:26;;;;;;;10.32;3.60;;;15.10;1.00;;;;;;4970070;28;20904;-56
2023/05/06 00:55:52;;;;;;;8.97;3.53;;;15.10;1.00;;;;;;4970119;28;20443;-56
2023/05/06 00:58:19;;;;;;;7.47;3.20;;;15.10;1.00;;;;;;4969368;28;20463;-56
2023/05/06 01:00:45;;;;;;;7.65;3.30;;;15.10;1.00;;;;;;4969609;28;20500;-56
2023/05/06 01:03:10;;;;;;;8.10;3.70;;;15.20;1.00;;;;;;4969565;28;20945;-56
2023/05/06 01:06:11;;;;;;;9.50;3.20;;;15.20;1.00;;;;;;4970283;28;20392;-56
2023/05/06 01:08:50;;;;;;;8.10;3.70;;;15.20;1.00;;;;;;4952924;28;20416;-56
2023/05/06 01:11:23;;;;;;;8.98;3.72;;;15.20;1.00;;;;;;4968846;28;20880;-56
2023/05/06 01:14:05;;;;;;;10.45;4.22;;;15.10;1.00;;;;;;4958671;28;20431;-56
2023/05/06 01:16:32;;;;;;;8.82;4.00;;;15.20;1.00;;;;;;4970306;28;20435;-56
2023/05/06 01:18:59;;;;;;;8.13;3.70;;;15.10;1.00;;;;;;4968832;28;20408;-56
2023/05/06 01:21:33;;;;;;;8.30;3.78;;;15.20;1.00;;;;;;4969816;28;20927;-56
2023/05/06 01:23:59;;;;;;;8.20;3.50;;;15.20;1.00;;;;;;4969253;28;20412;-56
2023/05/06 01:26:25;;;;;;;7.70;3.30;;;15.20;1.00;;;;;;4970309;28;20396;-56
2023/05/06 01:28:51;;;;;;;9.00;4.30;;;15.20;1.00;;;;;;4973164;28;20450;-56
2023/05/06 01:31:28;;;;;;;8.60;3.88;;;15.20;1.00;;;;;;4972621;28;20396;-56
2023/05/06 01:34:30;;;;;;;8.82;4.47;;;15.20;1.00;;;;;;4974095;28;20415;-56
2023/05/06 01:37:13;;;;;;;9.32;3.90;;;15.20;1.00;;;;;;4896180;29;20411;-56
2023/05/06 01:39:41;;;;;;;8.35;4.15;;;15.20;1.00;;;;;;4968241;28;20479;-56
2023/05/06 01:42:08;;;;;;;8.00;3.80;;;15.10;1.00;;;;;;4972158;28;20424;-56
2023/05/06 01:44:37;;;;;;;10.53;4.67;;;15.00;1.00;;;;;;4956091;28;20761;-56
2023/05/06 01:47:04;;;;;;;9.00;4.30;;;15.10;1.00;;;;;;4972686;28;20416;-56
2023/05/06 01:49:30;;;;;;;9.83;4.73;;;15.10;1.00;;;;;;4973192;28;20787;-56
2023/05/06 01:51:56;;;;;;;8.82;4.57;;;15.10;1.00;;;;;;4972780;28;20904;-56
2023/05/06 01:54:22;;;;;;;9.43;4.72;;;15.10;1.00;;;;;;4971342;28;20449;-56
2023/05/06 01:56:48;;;;;;;8.68;4.70;;;15.00;1.00;;;;;;4973075;28;20814;-56
2023/05/06 01:59:13;;;;;;;9.73;4.73;;;14.90;1.00;;;;;;4972084;28;20802;-56
2023/05/06 02:01:39;;;;;;;9.07;4.40;;;14.90;1.00;;;;;;4972795;28;20503;-56
2023/05/06 02:04:05;;;;;;;12.32;5.30;;;14.90;1.00;;;;;;4972202;28;20822;-56
2023/05/06 02:06:31;;;;;;;9.37;4.80;;;14.90;1.00;;;;;;4973068;28;20440;-56
2023/05/06 02:08:56;;;;;;;11.25;4.88;;;15.00;1.00;;;;;;4972499;28;20431;-56
2023/05/06 02:11:22;;;;;;;11.23;5.17;;;14.90;1.00;;;;;;4964423;28;20816;-56
2023/05/06 02:13:47;;;;;;;11.90;5.10;;;15.00;1.00;;;;;;4972439;28;20404;-56
2023/05/06 02:16:13;;;;;;;8.25;4.45;;;14.90;1.00;;;;;;4971895;28;20399;-56
2023/05/06 02:18:39;;;;;;;10.20;5.00;;;14.90;1.00;;;;;;4972757;28;20533;-56
2023/05/06 02:21:04;;;;;;;10.27;5.03;;;15.00;1.00;;;;;;4972012;28;20412;-56
2023/05/06 02:23:31;;;;;;;11.27;5.53;;;14.90;1.00;;;;;;4972337;28;20404;-56
2023/05/06 02:25:57;;;;;;;12.93;4.93;;;15.00;1.00;;;;;;4972604;28;20408;-56
2023/05/06 02:28:24;;;;;;;10.13;4.70;;;15.00;1.00;;;;;;4971946;28;20440;-56
2023/05/06 02:30:54;;;;;;;11.57;5.73;;;15.00;1.00;;;;;;4972596;28;20408;-56
2023/05/06 02:33:20;;;;;;;11.65;5.57;;;15.00;1.00;;;;;;4971685;28;20396;-56
2023/05/06 02:35:46;;;;;;;11.23;5.70;;;15.00;1.00;;;;;;4972475;28;20400;-55
2023/05/06 02:38:11;;;;;;;11.05;5.45;;;15.00;1.00;;;;;;4971681;28;20418;-56
2023/05/06 02:40:37;;;;;;;12.67;6.00;;;15.00;1.00;;;;;;4971912;28;20475;-55
2023/05/06 02:43:02;;;;;;;10.63;5.20;;;15.00;1.00;;;;;;4971441;28;20420;-56
2023/05/06 02:45:28;;;;;;;11.30;5.70;;;15.00;1.00;;;;;;4971969;28;20457;-56
2023/05/06 02:47:54;;;;;;;11.20;6.20;;;15.00;1.00;;;;;;4972121;28;20403;-56
2023/05/06 02:50:19;;;;;;;12.63;6.00;;;15.00;1.00;;;;;;4971108;28;20587;-56
2023/05/06 02:52:45;;;;;;;11.23;6.68;;;14.90;1.00;;;;;;4971816;28;20392;-56
2023/05/06 02:55:10;;;;;;;12.32;5.75;;;14.90;1.00;;;;;;4970628;28;20436;-56
2023/05/06 02:57:36;;;;;;;11.67;5.60;;;14.90;1.00;;;;;;4971426;28;20396;-56
2023/05/06 03:00:02;;;;;;;9.83;5.50;;;15.00;1.00;;;;;;4971423;28;20404;-56
2023/05/06 03:02:29;;;;;;;11.10;5.70;;;15.00;1.00;;;;;;4972102;28;20896;-56
2023/05/06 03:04:54;;;;;;;13.05;5.90;;;14.90;1.00;;;;;;4971662;28;20428;-56
2023/05/06 03:07:20;;;;;;;12.73;5.75;;;14.80;1.00;;;;;;4971255;28;20588;-56
2023/05/06 03:09:45;;;;;;;10.87;5.80;;;14.80;1.00;;;;;;4971353;28;20401;-56
2023/05/06 03:12:11;;;;;;;12.10;5.73;;;14.80;1.00;;;;;;4970784;28;20519;-56
2023/05/06 03:14:36;;;;;;;10.20;5.13;;;14.90;1.00;;;;;;4971849;28;20889;-56
2023/05/06 03:17:02;;;;;;;12.00;5.87;;;14.80;1.00;;;;;;4971145;28;20422;-56
2023/05/06 03:19:28;;;;;;;12.10;5.90;;;14.90;1.00;;;;;;4971432;28;20389;-56
2023/05/06 03:21:53;;;;;;;10.90;5.63;;;14.90;1.00;;;;;;4971351;28;20866;-56
2023/05/06 03:24:19;;;;;;;10.90;5.70;;;14.80;1.00;;;;;;4970780;28;20495;-56
2023/05/06 03:26:44;;;;;;;13.33;5.40;;;14.80;1.00;;;;;;4970676;28;20401;-56
2023/05/06 03:29:10;;;;;;;13.30;5.70;;;14.80;1.00;;;;;;4970175;28;20487;-56
2023/05/06 03:31:36;;;;;;;13.40;6.10;;;14.80;1.00;;;;;;4970737;28;20681;-56
2023/05/06 03:34:01;;;;;;;11.37;5.60;;;14.90;1.00;;;;;;4952897;28;20396;-56
2023/05/06 03:36:28;;;;;;;12.93;5.50;;;14.70;1.00;;;;;;4971155;28;20400;-56
2023/05/06 03:38:54;;;;;;;12.32;5.75;;;14.50;1.00;;;;;;4970849;28;20747;-56
2023/05/06 03:41:20;;;;;;;11.17;5.80;;;14.70;1.00;;;;;;4966224;28;20419;-56
2023/05/06 03:43:46;;;;;;;11.05;5.90;;;14.70;1.00;;;;;;4970708;28;20407;-56
2023/05/06 03:46:11;;;;;;;12.20;6.00;;;14.60;1.00;;;;;;4970668;28;20407;-56
2023/05/06 03:48:37;;;;;;;11.27;6.00;;;14.70;1.00;;;;;;4970562;28;20428;-56
2023/05/06 03:51:02;;;;;;;11.43;6.30;;;14.60;1.00;;;;;;4969306;28;20404;-56
2023/05/06 03:53:29;;;;;;;12.30;6.00;;;14.60;1.00;;;;;;4971179;28;20400;-56
2023/05/06 03:55:54;;;;;;;11.65;5.65;;;14.60;1.00;;;;;;4970750;28;20404;-56
2023/05/06 03:58:20;;;;;;;13.47;6.30;;;14.60;1.00;;;;;;4970468;28;20404;-56
2023/05/06 04:00:45;;;;;;;11.43;6.10;;;14.50;1.00;;;;;;4970862;28;20396;-56
2023/05/06 04:03:11;;;;;;;11.75;5.50;;;14.50;1.00;;;;;;4970100;28;20539;-56
2023/05/06 04:05:37;;;;;;;12.97;6.00;;;14.30;1.00;;;;;;4970962;28;20487;-55
2023/05/06 04:08:03;;;;;;;13.93;5.60;;;14.30;1.00;;;;;;4970131;28;20495;-56
2023/05/06 04:10:28;;;;;;;12.50;6.25;;;14.20;1.00;;;;;;4970358;28;20874;-56
2023/05/06 04:12:54;;;;;;;13.27;6.40;;;14.10;1.00;;;;;;4970499;28;20866;-56
2023/05/06 04:15:20;;;;;;;12.40;6.70;;;14.00;1.00;;;;;;4968845;28;20409;-56
2023/05/06 04:17:45;;;;;;;12.47;6.13;;;13.80;1.00;;;;;;4970156;28;21204;-56
2023/05/06 04:20:11;;;;;;;12.63;6.07;;;13.80;1.00;;;;;;4969508;28;20408;-56
2023/05/06 04:22:37;;;;;;;13.43;6.33;;;13.80;1.00;;;;;;4970367;28;20420;-56
2023/05/06 04:25:03;;;;;;;14.20;6.50;;;13.80;1.00;;;;;;4969649;28;20404;-55
2023/05/06 04:27:30;;;;;;;12.65;5.70;;;13.80;1.00;;;;;;4970603;28;20511;-56
2023/05/06 04:29:56;;;;;;;12.50;6.22;;;13.70;1.00;;;;;;4969457;28;20451;-56
2023/05/06 04:32:25;;;;;;;11.80;6.30;;;13.70;1.00;;;;;;4969713;28;20462;-56
2023/05/06 04:34:52;;;;;;;14.45;8.75;;;13.80;1.00;;;;;;4970522;28;20407;-56
2023/05/06 04:37:20;;;;;;;13.55;6.97;;;13.90;1.00;;;;;;4969852;28;20466;-56
2023/05/06 04:39:46;;;;;;;15.30;6.30;;;13.90;1.00;;;;;;4969822;28;20727;-55
2023/05/06 04:42:13;;;;;;;12.13;6.00;;;13.90;1.00;;;;;;4969841;28;20511;-55
2023/05/06 04:44:38;;;;;;;13.15;6.50;;;14.00;1.00;;;;;;4969632;28;20464;-55
2023/05/06 04:47:05;;;;;;;12.98;6.45;;;14.00;1.00;;;;;;4968976;28;20889;-55
2023/05/06 04:49:31;;;;;;;11.75;5.97;;;14.20;1.00;;;;;;4967148;28;20418;-55
2023/05/06 04:51:56;;;;;;;12.70;6.17;;;14.60;1.00;;;;;;4967459;28;20735;-55
2023/05/06 04:54:22;;;;;;;13.90;5.60;;;15.20;1.00;;;;;;4962696;28;20414;-55
2023/05/06 04:56:47;;;;;;;10.07;5.07;;;15.90;1.00;;;;;;4969225;28;20392;-56
2023/05/06 04:59:13;;;;;;;10.80;4.90;;;16.70;1.00;;;;;;4969094;28;20517;-56
2023/05/06 05:01:39;;;;;;;9.95;4.93;;;17.30;84.00;;;;;;4970176;28;20913;-56
2023/05/06 05:04:04;;;;;;;8.80;4.40;;;18.20;1.00;;;;;;4972093;28;20825;-56
2023/05/06 05:06:30;;;;;;;12.60;5.00;;;18.90;99.90;;;;;;4973925;28;20404;-56
2023/05/06 05:08:56;;;;;;;8.80;4.30;;;19.70;1.00;;;;;;4973092;28;20762;-56
2023/05/06 05:11:22;;;;;;;9.40;3.63;;;20.10;99.90;;;;;;4973017;28;20403;-57
2023/05/06 05:13:47;;;;;;;10.23;3.90;;;20.70;90.30;;;;;;4973570;28;20400;-57
2023/05/06 05:16:13;;;;;;;8.30;4.20;;;21.30;1.00;;;;;;4972412;28;20400;-56
2023/05/06 05:18:40;;;;;;;7.35;3.50;;;21.90;1.00;;;;;;4973318;28;20496;-57
2023/05/06 05:21:05;;;;;;;9.07;4.30;;;22.70;1.00;;;;;;4972687;28;20451;-57
2023/05/06 05:23:31;;;;;;;8.10;3.60;;;23.30;1.00;;;;;;4970126;28;20405;-57
2023/05/06 05:25:57;;;;;;;8.02;3.85;;;23.30;1.00;;;;;;4968482;28;20410;-57
2023/05/06 05:28:22;;;;;;;8.30;3.72;;;23.00;1.00;;;;;;4970931;28;20423;-58
2023/05/06 05:30:48;;;;;;;7.10;3.47;;;22.70;1.00;;;;;;4971392;28;20396;-58
2023/05/06 05:33:13;;;;;;;8.55;3.80;;;22.40;1.00;;;;;;4967795;28;20801;-57
2023/05/06 05:35:39;;;;;;;8.35;4.53;;;22.60;1.00;;;;;;4972003;28;20384;-57
2023/05/06 05:38:05;;;;;;;9.27;5.00;;;23.20;1.00;;;;;;4971509;28;20410;-57
2023/05/06 05:40:30;;;;;;;7.60;4.90;;;23.50;99.90;;;;;;4971975;28;20737;-57
2023/05/06 05:42:56;;;;;;;7.80;5.05;;;23.60;99.90;;;;;;4971134;28;20447;-58
2023/05/06 05:45:21;;;;;;;8.27;4.80;;;23.70;99.90;;;;;;4971200;28;21113;-58
2023/05/06 05:47:47;;;;;;;8.38;5.18;;;23.80;99.90;;;;;;4972008;28;20475;-57
2023/05/06 05:50:13;;;;;;;9.75;5.70;;;23.90;99.90;;;;;;4968935;28;20423;-57
2023/05/06 05:52:38;;;;;;;8.32;5.63;;;24.10;99.90;;;;;;4967066;28;20451;-57
2023/05/06 05:55:04;;;;;;;11.20;6.30;;;23.90;99.90;;;;;;4969565;28;20414;-59
2023/05/06 05:57:30;;;;;;;8.80;5.70;;;23.70;99.90;;;;;;4971539;28;20412;-58
2023/05/06 05:59:55;;;;;;;8.73;5.03;;;23.60;99.90;;;;;;4971965;28;20471;-57
2023/05/06 06:02:21;;;;;;;8.37;5.40;;;23.50;99.90;;;;;;4970169;28;20416;-58
2023/05/06 06:04:46;;;;;;;7.70;5.20;;;23.60;99.90;;;;;;4965360;28;20831;-58
2023/05/06 06:07:13;;;;;;;7.40;4.60;;;23.40;99.90;;;;;;4967634;28;20408;-58
2023/05/06 06:09:40;;;;;;;7.93;5.03;;;23.00;99.90;;;;;;4969662;28;20833;-57
2023/05/06 06:12:06;;;;;;;8.73;4.90;;;23.10;99.90;;;;;;4967225;28;20397;-58
2023/05/06 06:14:31;;;;;;;7.93;4.30;;;23.50;99.90;;;;;;4969156;28;20435;-58
2023/05/06 06:16:57;;;;;;;8.02;4.40;;;23.80;99.90;;;;;;4970630;28;20396;-57
2023/05/06 06:19:23;;;;;;;8.90;4.50;;;23.40;99.90;;;;;;4969817;28;20660;-58
2023/05/06 06:21:48;;;;;;;8.10;4.18;;;23.20;99.90;;;;;;4968851;28;20454;-57
2023/05/06 06:24:14;;;;;;;7.50;4.82;;;23.20;99.90;;;;;;4971207;28;20412;-58
2023/05/06 06:26:40;;;;;;;7.60;4.10;;;23.40;99.90;;;;;;4972030;28;20396;-58
2023/05/06 06:29:05;;;;;;;6.90;4.90;;;23.40;99.90;;;;;;4971397;28;20416;-58
2023/05/06 06:31:32;;;;;;;7.80;5.00;;;23.50;99.90;;;;;;4972484;28;20412;-58
2023/05/06 06:33:58;;;;;;;8.20;4.90;;;23.40;99.90;;;;;;4969802;28;20423;-58
2023/05/06 06:36:24;;;;;;;7.68;5.35;;;24.10;99.90;;;;;;4971122;28;20396;-58
2023/05/06 06:38:50;;;;;;;8.23;4.40;;;24.10;99.90;;;;;;4962684;28;20408;-58
2023/05/06 06:41:15;;;;;;;8.33;4.00;;;23.30;99.90;;;;;;4971499;28;20411;-58
2023/05/06 06:43:41;;;;;;;8.60;3.70;;;22.90;99.90;;;;;;4971183;28;20397;-57
2023/05/06 06:46:06;;;;;;;7.80;3.40;;;21.80;99.90;;;;;;4970898;28;20423;-57
2023/05/06 06:48:32;;;;;;;8.50;3.30;;;21.20;99.90;;;;;;4972154;28;20873;-57
2023/05/06 06:50:58;;;;;;;7.90;3.30;;;21.30;99.90;;;;;;4971830;28;20426;-57
2023/05/06 06:53:24;;;;;;;7.93;3.13;;;21.30;99.90;;;;;;4970927;28;20395;-57
2023/05/06 06:55:50;;;;;;;8.80;3.33;;;21.90;99.90;;;;;;4971275;28;20418;-57
2023/05/06 06:58:15;;;;;;;7.20;3.10;;;22.00;99.90;;;;;;4971148;28;20412;-58
2023/05/06 07:00:41;;;;;;;7.00;3.20;;;22.70;99.90;;;;;;4968471;28;20517;-58
2023/05/06 07:03:06;;;;;;;7.90;5.60;;;24.10;99.90;;;;;;4970790;28;20420;-57
2023/05/06 07:05:32;;;;;;;8.80;6.50;;;25.50;99.90;;;;;;4971023;28;20414;-60
2023/05/06 07:07:57;;;;;;;10.47;6.30;;;26.10;99.90;;;;;;4970528;28;20412;-62
2023/05/06 07:10:23;;;;;;;9.10;7.10;;;26.50;99.90;;;;;;4971170;28;21038;-61
2023/05/06 07:12:49;;;;;;;8.67;6.80;;;26.50;99.90;;;;;;4971241;28;20427;-58
2023/05/06 07:15:14;;;;;;;10.50;9.50;;;26.80;99.90;;;;;;4956063;28;20437;-58
2023/05/06 07:17:40;;;;;;;9.25;8.35;;;27.40;99.90;;;;;;4970883;28;20392;-58
2023/05/06 07:20:06;;;;;;;10.07;8.00;;;27.90;99.90;;;;;;4966515;28;20415;-58
2023/05/06 07:22:32;;;;;;;9.52;7.60;;;26.70;99.90;;;;;;4970817;28;20420;-57
2023/05/06 07:24:57;;;;;;;8.50;6.40;;;25.60;99.90;;;;;;4971809;28;20447;-58
2023/05/06 07:27:23;;;;;;;9.20;6.40;;;25.40;99.90;;;;;;4967509;28;20408;-58
2023/05/06 07:29:49;;;;;;;7.55;6.05;;;25.60;99.90;;;;;;4969224;28;20789;-57
2023/05/06 07:32:15;;;;;;;7.90;6.13;;;26.00;99.90;;;;;;4967302;28;20482;-58
2023/05/06 07:34:41;;;;;;;9.20;6.60;;;25.50;99.90;;;;;;4971155;28;20451;-58
2023/05/06 07:37:07;;;;;;;8.40;5.60;;;24.80;99.90;;;;;;4970126;28;20388;-58
2023/05/06 07:39:32;;;;;;;8.47;5.70;;;23.80;99.90;;;;;;4970562;28;20892;-57
2023/05/06 07:41:58;;;;;;;8.93;5.60;;;23.70;99.90;;;;;;4971212;28;20462;-58
2023/05/06 07:44:24;;;;;;;9.10;5.75;;;23.70;99.90;;;;;;4970311;28;21122;-57
2023/05/06 07:46:49;;;;;;;9.73;6.00;;;23.70;99.90;;;;;;4968991;28;20439;-58
2023/05/06 07:49:16;;;;;;;7.85;5.32;;;24.00;99.90;;;;;;4969520;28;20397;-58
2023/05/06 07:51:43;;;;;;;7.30;5.50;;;25.00;99.90;;;;;;4967133;28;20420;-58
2023/05/06 07:54:08;;;;;;;6.82;4.90;;;25.30;99.90;;;;;;4969850;28;20455;-58
2023/05/06 07:56:34;;;;;;;7.90;5.55;;;25.10;99.90;;;;;;4970046;28;20388;-57
2023/05/06 07:59:00;;;;;;;7.97;5.00;;;23.70;99.90;;;;;;4963638;28;20409;-58
2023/05/06 08:01:27;;;;;;;7.30;5.43;;;23.70;99.90;;;;;;4967655;28;20424;-58
2023/05/06 08:03:53;;;;;;;8.15;5.20;;;24.40;99.90;;;;;;4970818;28;20431;-58
2023/05/06 08:06:19;;;;;;;7.75;5.22;;;;;;;;;;4953270;28;20397;-58
2023/05/06 08:08:46;;;;;;;8.00;6.20;;;;;;;;;;4953040;28;20415;-58
2023/05/06 08:11:12;;;;;;;8.13;7.20;;;27.90;99.90;;;;;;4969977;28;20456;-58
2023/05/06 08:13:37;;;;;;;7.70;6.33;;;27.90;99.90;;;;;;4969100;28;20434;-57
2023/05/06 08:16:05;;;;;;;6.73;5.90;;;27.40;99.90;;;;;;4969064;28;20419;-58
2023/05/06 08:18:31;;;;;;;7.80;4.97;;;26.00;99.90;;;;;;4967627;28;20405;-58
2023/05/06 08:20:57;;;;;;;6.85;5.03;;;24.60;99.90;;;;;;4968727;28;20396;-58
2023/05/06 08:23:22;;;;;;;8.30;5.18;;;24.10;99.90;;;;;;4963492;28;20498;-58
2023/05/06 08:25:48;;;;;;;6.50;4.72;;;24.40;99.90;;;;;;4966825;28;20412;-58
2023/05/06 08:28:14;;;;;;;7.00;4.90;;;25.60;99.90;;;;;;4967548;28;20906;-58
2023/05/06 08:30:39;;;;;;;7.70;4.57;;;26.10;99.90;;;;;;4969462;28;20480;-58
2023/05/06 08:33:05;;;;;;;6.50;5.00;;;26.50;99.90;;;;;;4967795;28;20448;-58
2023/05/06 08:35:30;;;;;;;7.20;4.80;;;26.60;99.90;;;;;;4968354;28;20407;-58
2023/05/06 08:37:56;;;;;;;5.30;1.50;;;27.10;99.90;;;;;;4965370;28;20849;-58
2023/05/06 08:40:22;;;;;;;6.20;1.90;;;27.10;99.90;;;;;;4968726;28;20400;-58
2023/05/06 08:42:49;;;;;;;6.10;1.90;;;27.00;99.90;;;;;;4968811;28;20776;-58
2023/05/06 08:45:18;;;;;;;6.30;2.17;;;27.40;99.90;;;;;;4965459;28;20789;-58
2023/05/06 08:47:46;;;;;;;6.60;1.90;;;28.10;99.90;;;;;;4968227;28;20442;-58
2023/05/06 08:50:12;;;;;;;6.07;1.90;;;28.30;99.90;;;;;;4968516;28;20869;-58
2023/05/06 08:52:39;;;;;;;5.75;1.70;;;28.10;99.90;;;;;;4969447;28;20393;-58
2023/05/06 08:55:06;;;;;;;5.45;1.70;;;27.10;99.90;;;;;;4968815;28;20404;-58
2023/05/06 08:57:32;;;;;;;7.78;6.20;;;25.30;99.90;;;;;;4966765;28;20408;-57
2023/05/06 08:59:58;;;;;;;7.70;6.18;;;24.20;99.90;;;;;;4969826;28;20516;-58
2023/05/06 09:02:24;;;;;;;7.10;6.28;;;23.40;99.90;;;;;;4966923;28;20426;-58
2023/05/06 09:04:55;;;;;;;7.20;5.60;;;22.80;99.90;;;;;;4969210;28;20479;-58
2023/05/06 09:07:21;;;;;;;7.70;5.53;;;23.30;99.90;;;;;;4968650;28;20433;-58
2023/05/06 09:09:47;;;;;;;7.10;5.30;;;22.90;99.90;;;;;;4967293;28;20483;-58
2023/05/06 09:12:13;;;;;;;7.50;5.35;;;22.90;99.90;;;;;;4968089;28;20739;-58
2023/05/06 09:14:41;;;;;;;8.50;5.13;;;23.00;99.90;;;;;;4964174;28;20440;-58
2023/05/06 09:17:25;;;;;;;6.72;5.40;;;23.60;99.90;;;;;;4966333;28;20416;-58
2023/05/06 09:19:55;;;;;;;8.40;5.07;;;24.50;99.90;;;;;;4968862;28;20419;-58
2023/05/06 09:22:23;;;;;;;7.20;4.90;;;25.30;99.90;;;;;;4949258;28;20725;-58
2023/05/06 09:24:55;;;;;;;7.88;4.78;;;26.00;99.90;;;;;;4968912;28;20487;-58
2023/05/06 09:27:24;;;;;;;8.10;5.00;;;26.10;99.90;;;;;;4964771;28;20889;-58
2023/05/06 09:30:07;;;;;;;7.20;4.93;;;26.30;99.90;;;;;;4970011;28;20407;-58
2023/05/06 09:32:33;;;;;;;7.53;4.22;;;25.60;99.90;;;;;;4965139;28;20427;-58
2023/05/06 09:35:00;;;;;;;6.90;4.10;;;25.00;99.90;;;;;;4965752;28;20396;-58
2023/05/06 09:37:26;;;;;;;6.35;4.70;;;25.30;99.90;;;;;;4965993;28;20417;-58
2023/05/06 09:39:56;;;;;;;7.23;5.10;;;25.40;99.90;;;;;;4960914;28;20424;-58
2023/05/06 09:42:24;;;;;;;7.13;5.03;;;25.70;99.90;;;;;;4967511;28;20420;-59
2023/05/06 09:44:52;;;;;;;6.53;4.83;;;26.40;99.90;;;;;;4965399;28;20473;-58
2023/05/06 09:47:19;;;;;;;6.93;5.00;;;27.80;99.90;;;;;;4966487;28;20400;-58
2023/05/06 09:49:45;;;;;;;5.93;4.72;;;28.60;99.90;;;;;;4967997;28;20768;-58
2023/05/06 09:52:11;;;;;;;6.32;4.50;;;28.10;99.90;;;;;;4969499;28;20399;-58
2023/05/06 09:54:38;;;;;;;6.18;3.88;;;28.20;99.90;;;;;;4970001;28;20404;-58
2023/05/06 09:57:04;;;;;;;5.90;3.80;;;28.20;99.90;;;;;;4969566;28;20410;-58
2023/05/06 09:59:30;;;;;;;6.32;4.80;;;27.60;99.90;;;;;;4970234;28;20451;-58
2023/05/06 10:01:58;;;;;;;6.07;4.72;;;26.80;99.90;;;;;;4970659;28;20426;-59
2023/05/06 10:04:25;;;;;;;6.50;3.67;;;27.00;99.90;;;;;;4968207;28;20415;-59
2023/05/06 10:06:55;;;;;;;6.05;2.42;;;27.30;99.90;;;;;;4970979;28;20408;-59
2023/05/06 10:09:23;;;;;;;5.30;1.20;;;28.10;99.90;;;;;;4960866;28;21850;-58
2023/05/06 10:11:51;;;;;;;5.72;1.20;;;27.50;99.90;;;;;;4967900;28;20786;-59
2023/05/06 10:14:18;;;;;;;6.60;0.90;;;27.40;99.90;;;;;;4967860;28;20412;-59
2023/05/06 10:16:47;;;;;;;5.60;1.10;;;27.50;99.90;;;;;;4971437;28;20392;-59
2023/05/06 10:19:15;;;;;;;5.93;2.80;;;27.80;99.90;;;;;;4965392;28;20664;-59
2023/05/06 10:21:48;;;;;;;6.43;4.03;;;29.20;99.90;;;;;;4968436;28;20439;-59
2023/05/06 10:24:17;;;;;;;5.10;1.60;;;29.90;99.90;;;;;;4967712;28;20766;-59
2023/05/06 10:26:45;;;;;;;4.90;1.50;;;29.60;99.90;;;;;;4965523;28;21904;-59
2023/05/06 10:29:12;;;;;;;5.10;1.60;;;29.10;99.90;;;;;;4969964;28;20428;-59
2023/05/06 10:31:45;;;;;;;5.20;1.02;;;29.00;99.90;;;;;;4973410;28;20511;-58
2023/05/06 10:34:10;;;;;;;5.82;1.42;;;28.40;99.90;;;;;;4968247;28;20411;-59
2023/05/06 10:36:38;;;;;;;6.13;5.47;;;27.50;99.90;;;;;;4971609;28;20396;-58
2023/05/06 10:39:06;;;;;;;6.55;5.35;;;27.10;99.90;;;;;;4970548;28;20415;-59
2023/05/06 10:41:34;;;;;;;6.33;5.07;;;27.30;99.90;;;;;;4971507;28;20539;-58
2023/05/06 10:44:00;;;;;;;6.00;4.50;;;26.90;99.90;;;;;;4969669;28;20388;-58
2023/05/06 10:46:27;;;;;;;6.13;4.90;;;26.70;99.90;;;;;;4972061;28;21181;-58
2023/05/06 10:49:05;;;;;;;6.15;4.90;;;26.00;99.90;;;;;;4972284;28;20420;-58
2023/05/06 10:51:31;;;;;;;6.60;5.20;;;25.80;99.90;;;;;;4969356;28;20409;-58
2023/05/06 10:53:58;;;;;;;6.20;5.20;;;25.90;99.90;;;;;;4971571;28;20396;-58
2023/05/06 10:56:25;;;;;;;6.13;5.00;;;25.70;99.90;;;;;;4949323;28;20447;-59
2023/05/06 10:58:52;;;;;;;7.32;5.40;;;26.10;99.90;;;;;;4968298;28;20431;-58
2023/05/06 11:01:42;;;;;;;6.40;5.15;;;25.90;99.90;;;;;;4965212;28;20416;-58
2023/05/06 11:04:09;;;;;;;6.07;4.57;;;25.50;99.90;;;;;;4953630;28;22545;-59
2023/05/06 11:06:40;;;;;;;6.70;5.20;;;25.70;99.90;;;;;;4969776;28;20904;-58
2023/05/06 11:09:21;;;;;;;6.10;4.80;;;25.90;99.90;;;;;;4970389;28;20395;-59
2023/05/06 11:11:54;;;;;;;6.00;4.70;;;25.50;99.90;;;;;;4970839;28;20452;-58
2023/05/06 11:14:27;;;;;;;6.40;5.10;;;25.60;99.90;;;;;;4962205;28;20538;-58
2023/05/06 11:16:56;;;;;;;7.30;4.97;;;25.30;99.90;;;;;;4966379;28;20459;-58
2023/05/06 11:19:29;;;;;;;7.53;5.20;;;25.40;99.90;;;;;;4963594;28;20455;-58
2023/05/06 11:21:57;;;;;;;6.57;4.70;;;25.40;99.90;;;;;;4966817;28;20476;-58
2023/05/06 11:24:30;;;;;;;6.10;4.80;;;25.40;99.90;;;;;;4965530;28;20408;-58
2023/05/06 11:26:58;;;;;;;8.55;5.50;;;25.40;99.90;;;;;;4964754;28;20422;-58
2023/05/06 11:29:25;;;;;;;6.35;5.10;;;25.60;99.90;;;;;;4964396;28;20425;-58
2023/05/06 11:31:52;;;;;;;7.10;5.10;;;25.60;99.90;;;;;;4961812;28;20499;-58
2023/05/06 11:34:26;;;;;;;6.28;5.22;;;25.60;99.90;;;;;;4964424;28;20471;-58
2023/05/06 11:36:57;;;;;;;6.70;5.40;;;25.70;99.90;;;;;;4968705;28;20420;-58
2023/05/06 11:39:28;;;;;;;7.40;5.10;;;25.60;99.90;;;;;;4966281;28;20940;-58
2023/05/06 11:41:57;;;;;;;6.80;5.50;;;25.50;99.90;;;;;;4965253;28;20459;-58
2023/05/06 11:44:28;;;;;;;8.07;5.70;;;25.40;99.90;;;;;;4966949;28;20987;-58
2023/05/06 11:46:58;;;;;;;7.13;5.90;;;25.30;99.90;;;;;;4970054;28;20393;-59
2023/05/06 11:49:25;;;;;;;7.65;5.60;;;25.30;99.90;;;;;;4963216;28;20404;-58
2023/05/06 11:51:50;;;;;;;6.82;5.70;;;25.20;99.90;;;;;;4963497;28;20958;-58
2023/05/06 11:54:19;;;;;;;6.43;5.63;;;24.40;99.90;;;;;;4965313;28;20416;-58
2023/05/06 11:56:52;;;;;;;6.50;5.00;;;24.90;99.90;;;;;;4962480;28;22498;-59
2023/05/06 11:59:28;;;;;;;8.60;5.30;;;25.20;99.90;;;;;;4960874;28;20890;-58
2023/05/06 12:01:56;;;;;;;8.98;5.72;;;25.50;99.90;;;;;;4960580;28;20519;-58
2023/05/06 12:04:22;;;;;;;6.30;5.00;;;25.60;99.90;;;;;;4958270;28;20430;-58
2023/05/06 12:06:47;;;;;;;6.90;5.60;;;25.20;99.90;;;;;;4961876;28;20483;-59
2023/05/06 12:09:13;;;;;;;6.85;5.80;;;25.00;99.90;;;;;;4957718;28;20412;-58
2023/05/06 12:11:40;;;;;;;8.00;5.68;;;24.40;99.90;;;;;;4965764;28;20413;-58
2023/05/06 12:14:08;;;;;;;6.72;5.60;;;24.70;99.90;;;;;;4963104;28;20412;-58
2023/05/06 12:16:35;;;;;;;8.60;5.60;;;24.90;99.90;;;;;;4964345;28;20412;-58
2023/05/06 12:19:02;;;;;;;7.60;5.80;;;24.90;99.90;;;;;;4964102;28;20408;-58
2023/05/06 12:21:28;;;;;;;7.10;5.80;;;24.90;99.90;;;;;;4960189;28;20443;-58
2023/05/06 12:23:58;;;;;;;7.00;5.60;;;24.70;99.90;;;;;;4959961;28;20408;-58
2023/05/06 12:26:26;;;;;;;7.65;5.80;;;23.60;99.90;;;;;;4967508;28;20408;-58
2023/05/06 12:29:09;;;;;;;7.53;5.20;;;25.00;99.90;;;;;;4964550;28;20429;-58
2023/05/06 12:31:35;;;;;;;8.80;5.30;;;24.90;99.90;;;;;;4962028;28;20420;-58
2023/05/06 12:34:01;;;;;;;6.40;5.30;;;25.00;99.90;;;;;;4967846;28;20412;-58
2023/05/06 12:36:27;;;;;;;6.43;5.10;;;25.20;99.90;;;;;;4953615;28;20948;-58
2023/05/06 12:39:02;;;;;;;8.60;5.00;;;25.00;99.90;;;;;;4964970;28;20400;-58
2023/05/06 12:41:42;;;;;;;7.45;5.10;;;25.10;99.90;;;;;;4968690;28;20396;-58
2023/05/06 12:44:32;;;;;;;7.28;4.18;;;24.90;99.90;;;;;;4967188;28;20408;-60
2023/05/06 12:47:18;;;;;;;6.90;4.50;;;24.70;99.90;;;;;;4966691;28;20412;-58
2023/05/06 12:50:02;;;;;;;6.38;4.38;;;24.30;99.90;;;;;;4968945;28;20476;-58
2023/05/06 12:52:28;;;;;;;6.18;4.03;;;24.20;99.90;;;;;;4969078;28;20384;-58